createdAt,value
2022-09-02T00:00:02.029Z,0.00
2022-09-02T00:01:02.029Z,0.00
2022-09-02T00:02:02.150Z,0.00
2022-09-02T00:03:02.193Z,0.00
2022-09-02T00:04:01.990Z,0.00
2022-09-02T00:05:01.980Z,0.00
2022-09-02T00:06:01.980Z,0.00
2022-09-02T00:07:01.957Z,0.00
2022-09-02T00:08:01.983Z,0.00
2022-09-02T00:09:01.941Z,0.00
2022-09-02T00:10:01.915Z,0.00
2022-09-02T00:11:01.920Z,0.00
2022-09-02T00:12:01.893Z,0.00
2022-09-02T00:13:01.924Z,0.00
2022-09-02T00:14:01.866Z,0.00
2022-09-02T00:15:01.879Z,0.00
2022-09-02T00:16:01.974Z,0.00
2022-09-02T00:17:01.916Z,0.00
2022-09-02T00:18:01.857Z,0.00
2022-09-02T00:19:01.823Z,0.00
2022-09-02T00:20:01.821Z,0.00
2022-09-02T00:21:01.789Z,0.00
2022-09-02T00:22:01.765Z,0.00
2022-09-02T00:23:01.792Z,0.00
2022-09-02T00:24:01.746Z,0.00
2022-09-02T00:25:01.767Z,0.00
2022-09-02T00:26:01.726Z,0.00
2022-09-02T00:27:01.734Z,0.00
2022-09-02T00:28:01.760Z,0.00
2022-09-02T00:29:01.718Z,0.00
2022-09-02T00:30:01.697Z,0.00
2022-09-02T00:31:01.684Z,0.00
2022-09-02T00:32:01.719Z,0.00
2022-09-02T00:33:01.700Z,0.00
2022-09-02T00:34:01.667Z,0.00
2022-09-02T00:35:01.649Z,0.00
2022-09-02T00:36:01.611Z,0.00
2022-09-02T00:37:01.613Z,0.00
2022-09-02T00:38:01.637Z,0.00
2022-09-02T00:39:01.608Z,0.00
2022-09-02T00:40:01.598Z,0.00
2022-09-02T00:41:01.588Z,0.00
2022-09-02T00:42:01.551Z,0.00
2022-09-02T00:43:01.573Z,0.00
2022-09-02T00:44:01.544Z,0.00
2022-09-02T00:45:01.529Z,0.00
2022-09-02T00:46:01.560Z,0.00
2022-09-02T00:47:01.507Z,0.00
2022-09-02T00:48:01.511Z,0.00
2022-09-02T00:49:01.471Z,0.00
2022-09-02T00:50:01.492Z,0.00
2022-09-02T00:51:01.453Z,0.00
2022-09-02T00:52:01.434Z,0.00
2022-09-02T00:53:01.449Z,0.00
2022-09-02T00:54:01.415Z,0.00
2022-09-02T00:55:01.421Z,0.00
2022-09-02T00:56:01.385Z,0.00
2022-09-02T00:57:01.382Z,0.00
2022-09-02T00:58:01.387Z,0.00
2022-09-02T00:59:01.354Z,0.00
2022-09-02T01:00:01.348Z,0.00
2022-09-02T01:01:01.413Z,0.00
2022-09-02T01:02:01.439Z,0.00
2022-09-02T01:03:01.364Z,0.00
2022-09-02T01:04:01.312Z,0.00
2022-09-02T01:05:01.290Z,0.00
2022-09-02T01:06:01.294Z,0.00
2022-09-02T01:07:01.280Z,0.00
2022-09-02T01:08:01.301Z,0.00
2022-09-02T01:09:01.258Z,0.00
2022-09-02T01:10:01.234Z,0.00
2022-09-02T01:11:01.237Z,0.00
2022-09-02T01:12:01.204Z,0.00
2022-09-02T01:13:01.241Z,0.00
2022-09-02T01:14:01.197Z,0.00
2022-09-02T01:15:01.196Z,0.00
2022-09-02T01:16:01.208Z,0.00
2022-09-02T01:17:01.165Z,0.00
2022-09-02T01:18:01.174Z,0.00
2022-09-02T01:19:01.138Z,0.00
2022-09-02T01:20:01.139Z,0.00
2022-09-02T01:21:01.118Z,0.00
2022-09-02T01:22:01.109Z,0.00
2022-09-02T01:23:01.145Z,0.00
2022-09-02T01:24:01.075Z,0.00
2022-09-02T01:25:01.083Z,0.00
2022-09-02T01:26:01.091Z,0.00
2022-09-02T01:27:01.059Z,0.00
2022-09-02T01:28:01.027Z,0.00
2022-09-02T01:29:01.063Z,0.00
2022-09-02T01:30:01.013Z,0.00
2022-09-02T01:31:00.995Z,0.00
2022-09-02T01:32:01.052Z,0.00
2022-09-02T01:33:00.976Z,0.00
2022-09-02T01:34:00.988Z,0.00
2022-09-02T01:35:00.946Z,0.00
2022-09-02T01:36:00.961Z,0.00
2022-09-02T01:37:00.940Z,0.00
2022-09-02T01:38:00.928Z,0.00
2022-09-02T01:39:00.965Z,0.00
2022-09-02T01:40:00.886Z,0.00
2022-09-02T01:41:00.901Z,0.00
2022-09-02T01:42:00.872Z,0.00
2022-09-02T01:43:00.879Z,0.00
2022-09-02T01:44:00.893Z,0.00
2022-09-02T01:45:00.835Z,0.00
2022-09-02T01:46:00.838Z,0.00
2022-09-02T01:47:00.905Z,0.00
2022-09-02T01:48:00.831Z,0.00
2022-09-02T01:49:00.798Z,0.00
2022-09-02T01:50:00.800Z,0.00
2022-09-02T01:51:00.776Z,0.00
2022-09-02T01:52:00.780Z,0.00
2022-09-02T01:53:00.803Z,0.00
2022-09-02T01:54:00.752Z,0.00
2022-09-02T01:55:00.732Z,0.00
2022-09-02T01:56:00.711Z,0.00
2022-09-02T01:57:00.714Z,0.00
2022-09-02T01:58:00.701Z,0.00
2022-09-02T01:59:00.723Z,0.00
2022-09-02T02:00:00.674Z,0.00
2022-09-02T02:01:00.861Z,0.00
2022-09-02T02:02:00.682Z,0.00
2022-09-02T02:03:00.641Z,0.00
2022-09-02T02:04:00.651Z,0.00
2022-09-02T02:05:00.612Z,0.00
2022-09-02T02:06:00.607Z,0.00
2022-09-02T02:07:00.598Z,0.00
2022-09-02T02:08:00.585Z,0.00
2022-09-02T02:09:00.593Z,0.00
2022-09-02T02:10:00.543Z,0.00
2022-09-02T02:11:00.541Z,0.00
2022-09-02T02:12:00.555Z,0.00
2022-09-02T02:13:00.542Z,0.00
2022-09-02T02:14:00.555Z,0.00
2022-09-02T02:15:00.520Z,0.00
2022-09-02T02:16:00.540Z,0.00
2022-09-02T02:17:00.497Z,0.00
2022-09-02T02:18:00.471Z,0.00
2022-09-02T02:19:00.500Z,0.00
2022-09-02T02:20:00.454Z,0.00
2022-09-02T02:21:00.431Z,0.00
2022-09-02T02:22:00.433Z,0.00
2022-09-02T02:23:00.426Z,0.00
2022-09-02T02:24:00.424Z,0.00
2022-09-02T02:25:00.398Z,0.00
2022-09-02T02:26:00.394Z,0.00
2022-09-02T02:27:00.384Z,0.00
2022-09-02T02:28:00.355Z,0.00
2022-09-02T02:29:00.376Z,0.00
2022-09-02T02:30:00.339Z,0.00
2022-09-02T02:31:00.390Z,0.00
2022-09-02T02:32:00.309Z,0.00
2022-09-02T02:33:00.318Z,0.00
2022-09-02T02:34:00.347Z,0.00
2022-09-02T02:35:00.276Z,0.00
2022-09-02T02:36:00.268Z,0.00
2022-09-02T02:37:00.260Z,0.00
2022-09-02T02:38:03.718Z,0.00
2022-09-02T02:39:00.257Z,0.00
2022-09-02T02:40:00.261Z,0.00
2022-09-02T02:41:00.197Z,0.00
2022-09-02T02:42:00.198Z,0.00
2022-09-02T02:43:00.201Z,0.00
2022-09-02T02:44:00.220Z,0.00
2022-09-02T02:45:00.165Z,0.00
2022-09-02T02:46:00.145Z,0.00
2022-09-02T02:47:00.218Z,0.00
2022-09-02T02:48:00.117Z,0.00
2022-09-02T02:49:00.164Z,0.00
2022-09-02T02:50:00.110Z,0.00
2022-09-02T02:51:00.104Z,0.00
2022-09-02T02:52:00.101Z,0.00
2022-09-02T02:53:00.085Z,0.00
2022-09-02T02:54:00.100Z,0.00
2022-09-02T02:55:00.062Z,0.00
2022-09-02T02:56:00.051Z,0.00
2022-09-02T02:57:00.072Z,0.00
2022-09-02T02:58:00.011Z,0.00
2022-09-02T02:59:00.093Z,0.00
2022-09-02T02:59:59.979Z,0.00
2022-09-02T03:00:59.994Z,0.00
2022-09-02T03:02:00.034Z,0.00
2022-09-02T03:03:00.079Z,0.00
2022-09-02T03:03:59.992Z,0.00
2022-09-02T03:04:59.934Z,0.00
2022-09-02T03:05:59.936Z,0.00
2022-09-02T03:06:59.915Z,0.00
2022-09-02T03:07:59.914Z,0.00
2022-09-02T03:08:59.938Z,0.00
2022-09-02T03:09:59.896Z,0.00
2022-09-02T03:10:59.877Z,0.00
2022-09-02T03:11:59.878Z,0.00
2022-09-02T03:12:59.859Z,0.00
2022-09-02T03:13:59.874Z,0.00
2022-09-02T03:14:59.833Z,0.00
2022-09-02T03:15:59.826Z,0.00
2022-09-02T03:16:59.822Z,0.00
2022-09-02T03:17:59.783Z,0.00
2022-09-02T03:18:59.819Z,0.00
2022-09-02T03:19:59.764Z,0.00
2022-09-02T03:20:59.750Z,0.00
2022-09-02T03:21:59.734Z,0.00
2022-09-02T03:22:59.728Z,0.00
2022-09-02T03:23:59.723Z,0.00
2022-09-02T03:24:59.772Z,0.00
2022-09-02T03:25:59.723Z,0.00
2022-09-02T03:26:59.711Z,0.00
2022-09-02T03:27:59.685Z,0.00
2022-09-02T03:28:59.679Z,0.00
2022-09-02T03:29:59.699Z,0.00
2022-09-02T03:30:59.676Z,0.00
2022-09-02T03:31:59.627Z,0.00
2022-09-02T03:33:03.849Z,0.00
2022-09-02T03:33:59.616Z,0.00
2022-09-02T03:34:59.644Z,0.00
2022-09-02T03:35:59.592Z,0.00
2022-09-02T03:36:59.572Z,0.00
2022-09-02T03:37:59.582Z,0.00
2022-09-02T03:38:59.563Z,0.00
2022-09-02T03:39:59.585Z,0.00
2022-09-02T03:40:59.559Z,0.00
2022-09-02T03:41:59.509Z,0.00
2022-09-02T03:43:00.555Z,0.00
2022-09-02T03:43:59.488Z,0.00
2022-09-02T03:44:59.521Z,0.00
2022-09-02T03:45:59.524Z,0.00
2022-09-02T03:46:59.457Z,0.00
2022-09-02T03:47:59.445Z,0.00
2022-09-02T03:48:59.433Z,0.00
2022-09-02T03:49:59.455Z,0.00
2022-09-02T03:50:59.422Z,0.00
2022-09-02T03:51:59.417Z,0.00
2022-09-02T03:52:59.399Z,0.00
2022-09-02T03:53:59.367Z,0.00
2022-09-02T03:54:59.404Z,0.00
2022-09-02T03:55:59.346Z,0.00
2022-09-02T03:56:59.337Z,0.00
2022-09-02T03:57:59.327Z,0.00
2022-09-02T03:58:59.321Z,0.00
2022-09-02T03:59:59.340Z,0.00
2022-09-02T04:00:59.301Z,0.00
2022-09-02T04:01:59.391Z,0.00
2022-09-02T04:02:59.367Z,5.62
2022-09-02T04:03:59.273Z,5.62
2022-09-02T04:04:59.290Z,5.62
2022-09-02T04:05:59.230Z,5.62
2022-09-02T04:06:59.231Z,5.62
2022-09-02T04:07:59.203Z,5.62
2022-09-02T04:08:59.192Z,11.25
2022-09-02T04:09:59.232Z,11.25
2022-09-02T04:10:59.192Z,11.25
2022-09-02T04:11:59.169Z,11.25
2022-09-02T04:12:59.162Z,16.88
2022-09-02T04:13:59.160Z,16.88
2022-09-02T04:14:59.177Z,16.88
2022-09-02T04:16:01.905Z,16.88
2022-09-02T04:16:59.121Z,22.50
2022-09-02T04:17:59.142Z,22.50
2022-09-02T04:18:59.101Z,22.50
2022-09-02T04:19:59.118Z,28.12
2022-09-02T04:20:59.083Z,28.12
2022-09-02T04:21:59.068Z,33.75
2022-09-02T04:22:59.050Z,33.75
2022-09-02T04:23:59.052Z,33.75
2022-09-02T04:24:59.063Z,39.38
2022-09-02T04:25:59.032Z,39.38
2022-09-02T04:27:03.919Z,45.00
2022-09-02T04:27:59.996Z,45.00
2022-09-02T04:28:58.978Z,50.62
2022-09-02T04:29:59.015Z,50.62
2022-09-02T04:30:59.017Z,56.25
2022-09-02T04:31:58.937Z,56.25
2022-09-02T04:32:58.913Z,61.88
2022-09-02T04:33:58.901Z,61.88
2022-09-02T04:34:58.947Z,67.50
2022-09-02T04:35:58.901Z,67.50
2022-09-02T04:36:58.905Z,73.12
2022-09-02T04:37:58.882Z,78.75
2022-09-02T04:38:58.854Z,84.38
2022-09-02T04:39:58.892Z,84.38
2022-09-02T04:40:58.831Z,90.00
2022-09-02T04:41:58.846Z,90.00
2022-09-02T04:42:58.815Z,95.62
2022-09-02T04:43:58.826Z,95.62
2022-09-02T04:44:58.813Z,101.25
2022-09-02T04:45:58.834Z,101.25
2022-09-02T04:46:58.780Z,106.88
2022-09-02T04:47:58.761Z,106.88
2022-09-02T04:48:58.759Z,112.50
2022-09-02T04:49:58.801Z,112.50
2022-09-02T04:50:58.719Z,118.12
2022-09-02T04:51:58.719Z,118.12
2022-09-02T04:52:58.698Z,118.12
2022-09-02T04:53:58.701Z,123.75
2022-09-02T04:54:58.717Z,123.75
2022-09-02T04:55:58.676Z,129.38
2022-09-02T04:56:58.659Z,135.00
2022-09-02T04:57:58.640Z,135.00
2022-09-02T04:58:58.629Z,140.62
2022-09-02T04:59:58.663Z,140.62
2022-09-02T05:00:58.617Z,146.25
2022-09-02T05:01:58.729Z,151.88
2022-09-02T05:02:58.673Z,151.88
2022-09-02T05:03:58.590Z,157.50
2022-09-02T05:04:58.598Z,157.50
2022-09-02T05:05:58.561Z,163.12
2022-09-02T05:06:58.568Z,163.12
2022-09-02T05:07:58.521Z,168.75
2022-09-02T05:08:58.506Z,168.75
2022-09-02T05:09:58.538Z,174.38
2022-09-02T05:10:58.476Z,174.38
2022-09-02T05:11:58.506Z,174.38
2022-09-02T05:12:58.489Z,180.00
2022-09-02T05:13:58.461Z,180.00
2022-09-02T05:14:58.459Z,185.62
2022-09-02T05:15:58.516Z,185.62
2022-09-02T05:16:58.430Z,191.25
2022-09-02T05:17:58.424Z,191.25
2022-09-02T05:18:58.418Z,191.25
2022-09-02T05:19:58.409Z,196.88
2022-09-02T05:20:58.418Z,196.88
2022-09-02T05:21:58.372Z,196.88
2022-09-02T05:22:58.361Z,196.88
2022-09-02T05:23:58.360Z,202.50
2022-09-02T05:24:58.339Z,202.50
2022-09-02T05:25:58.357Z,202.50
2022-09-02T05:26:58.320Z,208.12
2022-09-02T05:27:58.317Z,208.12
2022-09-02T05:28:58.298Z,208.12
2022-09-02T05:29:58.292Z,213.75
2022-09-02T05:30:58.342Z,213.75
2022-09-02T05:31:58.270Z,213.75
2022-09-02T05:32:58.264Z,219.38
2022-09-02T05:33:58.250Z,219.38
2022-09-02T05:34:58.251Z,219.38
2022-09-02T05:35:58.263Z,225.00
2022-09-02T05:36:58.194Z,225.00
2022-09-02T05:38:00.924Z,225.00
2022-09-02T05:38:58.174Z,230.62
2022-09-02T05:39:58.177Z,230.62
2022-09-02T05:40:58.231Z,230.62
2022-09-02T05:41:58.163Z,236.25
2022-09-02T05:42:58.158Z,236.25
2022-09-02T05:44:01.358Z,236.25
2022-09-02T05:44:59.123Z,236.25
2022-09-02T05:45:58.246Z,241.88
2022-09-02T05:46:58.081Z,241.88
2022-09-02T05:47:58.100Z,247.50
2022-09-02T05:48:58.062Z,247.50
2022-09-02T05:49:58.057Z,247.50
2022-09-02T05:50:58.603Z,247.50
2022-09-02T05:51:58.040Z,253.12
2022-09-02T05:52:58.007Z,253.12
2022-09-02T05:53:58.028Z,253.12
2022-09-02T05:54:57.998Z,258.75
2022-09-02T05:55:58.019Z,258.75
2022-09-02T05:56:57.983Z,258.75
2022-09-02T05:57:57.967Z,258.75
2022-09-02T05:58:57.945Z,258.75
2022-09-02T05:59:57.961Z,258.75
2022-09-02T06:00:57.966Z,258.75
2022-09-02T06:01:57.977Z,258.75
2022-09-02T06:02:57.986Z,258.75
2022-09-02T06:03:57.905Z,258.75
2022-09-02T06:04:57.910Z,258.75
2022-09-02T06:06:00.553Z,264.38
2022-09-02T06:06:58.864Z,264.38
2022-09-02T06:07:57.849Z,264.38
2022-09-02T06:08:57.834Z,270.00
2022-09-02T06:09:57.864Z,270.00
2022-09-02T06:10:57.855Z,275.62
2022-09-02T06:11:57.821Z,275.62
2022-09-02T06:12:57.805Z,275.62
2022-09-02T06:13:57.777Z,281.25
2022-09-02T06:14:57.774Z,281.25
2022-09-02T06:15:57.891Z,286.88
2022-09-02T06:16:57.755Z,286.88
2022-09-02T06:17:57.744Z,286.88
2022-09-02T06:18:57.710Z,286.88
2022-09-02T06:19:57.705Z,292.50
2022-09-02T06:20:57.724Z,292.50
2022-09-02T06:21:57.684Z,292.50
2022-09-02T06:22:57.663Z,298.12
2022-09-02T06:23:57.653Z,298.12
2022-09-02T06:24:57.658Z,303.75
2022-09-02T06:25:57.683Z,303.75
2022-09-02T06:26:57.638Z,303.75
2022-09-02T06:27:57.637Z,303.75
2022-09-02T06:28:57.605Z,303.75
2022-09-02T06:29:57.597Z,303.75
2022-09-02T06:30:57.688Z,303.75
2022-09-02T06:31:57.583Z,309.38
2022-09-02T06:32:57.590Z,309.38
2022-09-02T06:33:57.557Z,309.38
2022-09-02T06:34:57.550Z,315.00
2022-09-02T06:35:57.556Z,315.00
2022-09-02T06:36:57.561Z,315.00
2022-09-02T06:37:57.506Z,315.00
2022-09-02T06:38:57.516Z,320.62
2022-09-02T06:39:57.511Z,320.62
2022-09-02T06:40:57.541Z,320.62
2022-09-02T06:41:57.489Z,320.62
2022-09-02T06:42:57.449Z,326.25
2022-09-02T06:43:57.437Z,326.25
2022-09-02T06:44:57.439Z,326.25
2022-09-02T06:45:57.517Z,326.25
2022-09-02T06:46:57.426Z,331.88
2022-09-02T06:47:57.397Z,331.88
2022-09-02T06:48:57.400Z,331.88
2022-09-02T06:49:57.376Z,337.50
2022-09-02T06:50:57.393Z,337.50
2022-09-02T06:51:57.360Z,337.50
2022-09-02T06:52:57.327Z,343.12
2022-09-02T06:53:57.351Z,343.12
2022-09-02T06:54:57.304Z,343.12
2022-09-02T06:55:57.321Z,348.75
2022-09-02T06:56:57.277Z,348.75
2022-09-02T06:57:57.284Z,348.75
2022-09-02T06:58:57.268Z,354.38
2022-09-02T07:00:02.323Z,354.38
2022-09-02T07:00:58.324Z,354.38
2022-09-02T07:01:57.386Z,354.38
2022-09-02T07:02:57.244Z,360.00
2022-09-02T07:03:57.220Z,360.00
2022-09-02T07:04:57.786Z,360.00
2022-09-02T07:05:57.224Z,360.00
2022-09-02T07:06:57.170Z,365.62
2022-09-02T07:07:57.182Z,365.62
2022-09-02T07:08:57.157Z,365.62
2022-09-02T07:09:57.172Z,371.25
2022-09-02T07:10:57.178Z,371.25
2022-09-02T07:11:59.867Z,371.25
2022-09-02T07:12:58.110Z,376.88
2022-09-02T07:13:57.118Z,376.88
2022-09-02T07:14:57.105Z,376.88
2022-09-02T07:15:57.163Z,382.50
2022-09-02T07:16:57.122Z,382.50
2022-09-02T07:17:57.063Z,388.12
2022-09-02T07:18:57.070Z,393.75
2022-09-02T07:19:57.055Z,393.75
2022-09-02T07:20:57.060Z,399.38
2022-09-02T07:21:57.018Z,399.38
2022-09-02T07:22:57.103Z,399.38
2022-09-02T07:23:57.001Z,399.38
2022-09-02T07:24:56.966Z,405.00
2022-09-02T07:25:57.010Z,405.00
2022-09-02T07:26:56.950Z,410.62
2022-09-02T07:27:56.941Z,416.25
2022-09-02T07:28:56.942Z,421.88
2022-09-02T07:29:56.909Z,421.88
2022-09-02T07:30:59.868Z,427.50
2022-09-02T07:31:56.903Z,433.12
2022-09-02T07:32:56.885Z,444.38
2022-09-02T07:33:56.881Z,455.62
2022-09-02T07:34:56.869Z,466.88
2022-09-02T07:35:56.902Z,478.12
2022-09-02T07:37:00.507Z,500.62
2022-09-02T07:37:57.835Z,511.88
2022-09-02T07:38:56.837Z,540.00
2022-09-02T07:39:56.821Z,573.75
2022-09-02T07:40:57.228Z,753.75
2022-09-02T07:41:56.806Z,1344.38
2022-09-02T07:43:59.511Z,1845.00
2022-09-02T07:44:56.750Z,1895.62
2022-09-02T07:45:56.824Z,1805.62
2022-09-02T07:46:56.741Z,1816.88
2022-09-02T07:47:56.733Z,1867.50
2022-09-02T07:48:56.720Z,1710.00
2022-09-02T07:50:57.714Z,1665.00
2022-09-02T07:51:56.691Z,1681.88
2022-09-02T07:52:56.688Z,1631.25
2022-09-02T07:53:56.662Z,1552.50
2022-09-02T07:54:56.641Z,1603.12
2022-09-02T07:55:56.657Z,1811.25
2022-09-02T07:56:56.616Z,1715.62
2022-09-02T07:57:56.617Z,1726.88
2022-09-02T07:58:56.598Z,1878.75
2022-09-02T07:59:56.621Z,1957.50
2022-09-02T08:00:56.662Z,1946.25
2022-09-02T08:01:56.620Z,2053.12
2022-09-02T08:02:56.599Z,2154.38
2022-09-02T08:03:56.534Z,2109.38
2022-09-02T08:04:56.541Z,2188.12
2022-09-02T08:05:56.556Z,2407.50
2022-09-02T08:06:56.510Z,2660.62
2022-09-02T08:07:56.511Z,2790.00
2022-09-02T08:08:56.509Z,2919.38
2022-09-02T08:09:56.481Z,3183.75
2022-09-02T08:10:56.570Z,3110.62
2022-09-02T08:11:56.483Z,3290.62
2022-09-02T08:12:56.445Z,3223.12
2022-09-02T08:13:56.450Z,3543.75
2022-09-02T08:14:56.419Z,3960.00
2022-09-02T08:15:56.450Z,3397.50
2022-09-02T08:16:56.430Z,3740.62
2022-09-02T08:17:56.407Z,3808.12
2022-09-02T08:18:56.393Z,4145.62
2022-09-02T08:19:56.361Z,3920.62
2022-09-02T08:20:56.359Z,3791.25
2022-09-02T08:21:56.390Z,3830.62
2022-09-02T08:23:05.848Z,3543.75
2022-09-02T08:23:57.317Z,3948.75
2022-09-02T08:24:56.312Z,3768.75
2022-09-02T08:25:56.292Z,3498.75
2022-09-02T08:26:56.319Z,3830.62
2022-09-02T08:28:57.257Z,3532.50
2022-09-02T08:29:56.269Z,3864.38
2022-09-02T08:30:56.238Z,3768.75
2022-09-02T08:31:56.306Z,3976.88
2022-09-02T08:32:56.234Z,4331.25
2022-09-02T08:33:56.216Z,4207.50
2022-09-02T08:34:56.198Z,4899.38
2022-09-02T08:35:56.201Z,5456.25
2022-09-02T08:36:57.095Z,4741.88
2022-09-02T08:37:56.154Z,5259.38
2022-09-02T08:38:56.162Z,5130.00
2022-09-02T08:39:56.125Z,4809.38
2022-09-02T08:40:56.178Z,5360.62
2022-09-02T08:41:56.202Z,4888.12
2022-09-02T08:42:56.131Z,4567.50
2022-09-02T08:43:56.096Z,5231.25
2022-09-02T08:44:56.109Z,4910.62
2022-09-02T08:45:56.138Z,4398.75
2022-09-02T08:46:56.097Z,4595.62
2022-09-02T08:47:56.105Z,4595.62
2022-09-02T08:48:56.034Z,4595.62
2022-09-02T08:49:56.027Z,5062.50
2022-09-02T08:50:56.025Z,4933.12
2022-09-02T08:51:56.045Z,4336.88
2022-09-02T08:52:56.005Z,5394.38
2022-09-02T08:53:55.995Z,5023.12
2022-09-02T08:54:55.999Z,4786.88
2022-09-02T08:55:55.957Z,4843.12
2022-09-02T08:56:56.001Z,4325.62
2022-09-02T08:57:56.021Z,4410.00
2022-09-02T08:58:56.649Z,4005.00
2022-09-02T08:59:55.917Z,4286.25
2022-09-02T09:00:55.956Z,4348.12
2022-09-02T09:01:56.002Z,3555.00
2022-09-02T09:02:55.930Z,3780.00
2022-09-02T09:03:55.905Z,3465.00
2022-09-02T09:04:55.882Z,3009.38
2022-09-02T09:05:55.857Z,3009.38
2022-09-02T09:06:55.884Z,2936.25
2022-09-02T09:07:55.829Z,2812.50
2022-09-02T09:08:55.860Z,2694.38
2022-09-02T09:09:55.832Z,2621.25
2022-09-02T09:10:55.799Z,2536.88
2022-09-02T09:11:55.813Z,2525.62
2022-09-02T09:12:55.783Z,2525.62
2022-09-02T09:13:55.756Z,2469.38
2022-09-02T09:14:55.773Z,2469.38
2022-09-02T09:15:55.787Z,2435.62
2022-09-02T09:16:55.866Z,2385.00
2022-09-02T09:17:55.751Z,2362.50
2022-09-02T09:18:55.725Z,2345.62
2022-09-02T09:19:55.709Z,2328.75
2022-09-02T09:20:55.698Z,2306.25
2022-09-02T09:21:55.728Z,2272.50
2022-09-02T09:22:55.698Z,2261.25
2022-09-02T09:23:55.665Z,2266.88
2022-09-02T09:24:55.685Z,2238.75
2022-09-02T09:25:55.646Z,2199.38
2022-09-02T09:26:55.672Z,2199.38
2022-09-02T09:27:55.624Z,2193.75
2022-09-02T09:28:55.642Z,2216.25
2022-09-02T09:29:55.606Z,2199.38
2022-09-02T09:30:55.612Z,2199.38
2022-09-02T09:31:55.612Z,2216.25
2022-09-02T09:32:55.606Z,2221.88
2022-09-02T09:33:55.562Z,2199.38
2022-09-02T09:34:55.540Z,2193.75
2022-09-02T09:35:55.541Z,2182.50
2022-09-02T09:36:55.532Z,2182.50
2022-09-02T09:37:55.545Z,2199.38
2022-09-02T09:38:55.500Z,2176.88
2022-09-02T09:39:55.511Z,2188.12
2022-09-02T09:40:55.471Z,2210.62
2022-09-02T09:41:55.473Z,2221.88
2022-09-02T09:42:55.603Z,2255.62
2022-09-02T09:43:55.463Z,528.75
2022-09-02T09:44:55.467Z,1372.50
2022-09-02T09:45:55.451Z,2390.62
2022-09-02T09:46:55.436Z,2328.75
2022-09-02T09:47:58.552Z,2373.75
2022-09-02T09:48:55.386Z,2430.00
2022-09-02T09:49:55.401Z,2424.38
2022-09-02T09:50:55.358Z,2379.38
2022-09-02T09:51:55.369Z,2334.38
2022-09-02T09:52:55.376Z,2362.50
2022-09-02T09:53:55.365Z,2373.75
2022-09-02T09:54:55.335Z,2435.62
2022-09-02T09:55:55.318Z,2542.50
2022-09-02T09:56:55.324Z,2525.62
2022-09-02T09:57:55.327Z,2435.62
2022-09-02T09:58:55.274Z,2396.25
2022-09-02T09:59:55.287Z,2385.00
2022-09-02T10:00:55.295Z,2385.00
2022-09-02T10:01:55.306Z,2379.38
2022-09-02T10:02:55.286Z,2390.62
2022-09-02T10:03:55.241Z,2418.75
2022-09-02T10:04:55.226Z,2469.38
2022-09-02T10:05:55.240Z,2581.88
2022-09-02T10:06:55.219Z,2255.62
2022-09-02T10:07:55.223Z,1293.75
2022-09-02T10:08:55.178Z,776.25
2022-09-02T10:09:55.174Z,815.62
2022-09-02T10:10:55.210Z,905.62
2022-09-02T10:11:55.150Z,995.62
2022-09-02T10:12:55.193Z,1113.75
2022-09-02T10:13:55.151Z,1957.50
2022-09-02T10:14:55.136Z,1231.88
2022-09-02T10:15:55.168Z,1147.50
2022-09-02T10:16:55.158Z,2666.25
2022-09-02T10:17:55.125Z,2694.38
2022-09-02T10:18:55.089Z,2621.25
2022-09-02T10:19:55.057Z,2565.00
2022-09-02T10:21:56.037Z,641.25
2022-09-02T10:22:59.404Z,753.75
2022-09-02T10:23:56.019Z,725.62
2022-09-02T10:24:55.005Z,680.62
2022-09-02T10:25:54.997Z,669.38
2022-09-02T10:26:55.007Z,697.50
2022-09-02T10:27:55.001Z,748.12
2022-09-02T10:28:54.964Z,815.62
2022-09-02T10:29:54.963Z,855.00
2022-09-02T10:30:54.958Z,838.12
2022-09-02T10:31:54.948Z,810.00
2022-09-02T10:32:54.936Z,793.12
2022-09-02T10:33:54.923Z,793.12
2022-09-02T10:34:54.907Z,826.88
2022-09-02T10:35:54.898Z,894.38
2022-09-02T10:36:54.889Z,1085.62
2022-09-02T10:37:54.916Z,1119.38
2022-09-02T10:38:54.873Z,1113.75
2022-09-02T10:39:54.860Z,1153.12
2022-09-02T10:40:54.874Z,1175.62
2022-09-02T10:41:54.811Z,1215.00
2022-09-02T10:42:54.853Z,1001.25
2022-09-02T10:43:57.409Z,973.12
2022-09-02T10:44:58.817Z,916.88
2022-09-02T10:45:54.769Z,838.12
2022-09-02T10:46:54.835Z,793.12
2022-09-02T10:47:54.813Z,765.00
2022-09-02T10:48:54.747Z,765.00
2022-09-02T10:49:54.765Z,793.12
2022-09-02T10:50:54.718Z,832.50
2022-09-02T10:51:54.713Z,877.50
2022-09-02T10:52:54.749Z,928.12
2022-09-02T10:53:54.695Z,1001.25
2022-09-02T10:54:54.665Z,1035.00
2022-09-02T10:55:54.688Z,1051.88
2022-09-02T10:56:54.691Z,1068.75
2022-09-02T10:57:54.691Z,1102.50
2022-09-02T10:58:54.658Z,1108.12
2022-09-02T10:59:54.606Z,1091.25
2022-09-02T11:00:54.671Z,1057.50
2022-09-02T11:01:54.592Z,1006.88
2022-09-02T11:02:54.645Z,967.50
2022-09-02T11:03:54.635Z,956.25
2022-09-02T11:04:54.956Z,984.38
2022-09-02T11:05:54.550Z,1023.75
2022-09-02T11:07:03.267Z,1186.88
2022-09-02T11:07:55.563Z,1203.75
2022-09-02T11:08:54.547Z,1147.50
2022-09-02T11:09:54.516Z,1136.25
2022-09-02T11:10:54.523Z,1035.00
2022-09-02T11:11:57.063Z,990.00
2022-09-02T11:12:54.593Z,978.75
2022-09-02T11:13:54.479Z,1001.25
2022-09-02T11:14:54.458Z,1068.75
2022-09-02T11:15:54.463Z,1130.62
2022-09-02T11:16:54.474Z,1226.25
2022-09-02T11:17:54.463Z,2070.00
2022-09-02T11:18:54.431Z,1659.38
2022-09-02T11:19:54.412Z,1513.12
2022-09-02T11:20:54.400Z,3234.38
2022-09-02T11:21:54.384Z,2868.75
2022-09-02T11:22:54.572Z,3043.12
2022-09-02T11:23:54.362Z,3076.88
2022-09-02T11:24:54.347Z,1338.75
2022-09-02T11:25:54.343Z,1321.88
2022-09-02T11:26:54.323Z,1400.62
2022-09-02T11:27:54.342Z,2154.38
2022-09-02T11:28:54.302Z,3183.75
2022-09-02T11:29:54.314Z,2790.00
2022-09-02T11:30:54.293Z,2283.75
2022-09-02T11:31:54.245Z,2947.50
2022-09-02T11:32:54.270Z,2604.38
2022-09-02T11:33:54.263Z,3211.88
2022-09-02T11:34:54.236Z,2896.88
2022-09-02T11:35:54.298Z,2227.50
2022-09-02T11:36:54.233Z,1743.75
2022-09-02T11:37:54.251Z,1395.00
2022-09-02T11:38:54.214Z,2323.12
2022-09-02T11:40:02.577Z,3290.62
2022-09-02T11:41:55.210Z,1693.12
2022-09-02T11:42:54.184Z,2452.50
2022-09-02T11:44:54.133Z,1333.12
2022-09-02T11:45:54.161Z,1136.25
2022-09-02T11:46:54.169Z,1102.50
2022-09-02T11:47:54.097Z,1108.12
2022-09-02T11:48:54.140Z,1080.00
2022-09-02T11:49:54.100Z,1023.75
2022-09-02T11:50:54.072Z,950.62
2022-09-02T11:51:54.056Z,905.62
2022-09-02T11:52:54.044Z,866.25
2022-09-02T11:53:55.998Z,849.38
2022-09-02T11:54:54.020Z,855.00
2022-09-02T11:55:54.019Z,860.62
2022-09-02T11:56:53.994Z,871.88
2022-09-02T11:57:54.001Z,900.00
2022-09-02T11:58:54.049Z,945.00
2022-09-02T11:59:53.973Z,1006.88
2022-09-02T12:00:53.964Z,1068.75
2022-09-02T12:01:53.926Z,1125.00
2022-09-02T12:02:53.945Z,1192.50
2022-09-02T12:04:34.433Z,1248.75
2022-09-02T12:05:00.511Z,1305.00
2022-09-02T12:05:54.938Z,1361.25
2022-09-02T12:06:54.025Z,1389.38
2022-09-02T12:07:53.866Z,1406.25
2022-09-02T12:08:53.893Z,1473.75
2022-09-02T12:09:53.837Z,2666.25
2022-09-02T12:10:53.842Z,2131.88
2022-09-02T12:11:53.843Z,2565.00
2022-09-02T12:12:53.820Z,2694.38
2022-09-02T12:13:53.857Z,2795.62
2022-09-02T12:14:53.809Z,2486.25
2022-09-02T12:15:53.851Z,2053.12
2022-09-02T12:16:53.787Z,1755.00
2022-09-02T12:17:53.793Z,2514.38
2022-09-02T12:18:53.813Z,2503.12
2022-09-02T12:19:53.776Z,2520.00
2022-09-02T12:20:53.740Z,2559.38
2022-09-02T12:21:53.719Z,2576.25
2022-09-02T12:22:53.713Z,2604.38
2022-09-02T12:23:53.774Z,2626.88
2022-09-02T12:24:53.707Z,2666.25
2022-09-02T12:25:53.670Z,2756.25
2022-09-02T12:26:53.705Z,2835.00
2022-09-02T12:27:53.669Z,1760.62
2022-09-02T12:28:53.704Z,1338.75
2022-09-02T12:29:53.659Z,1400.62
2022-09-02T12:30:53.775Z,1316.25
2022-09-02T12:31:53.713Z,1282.50
2022-09-02T12:32:53.622Z,1282.50
2022-09-02T12:33:53.633Z,1276.88
2022-09-02T12:34:53.614Z,1243.12
2022-09-02T12:35:53.560Z,1215.00
2022-09-02T12:36:53.580Z,1203.75
2022-09-02T12:37:53.946Z,1338.75
2022-09-02T12:38:53.602Z,1181.25
2022-09-02T12:39:53.552Z,1113.75
2022-09-02T12:40:53.602Z,1035.00
2022-09-02T12:41:53.502Z,967.50
2022-09-02T12:42:53.482Z,922.50